Time;durP1;ratioP1;P1;durP2;ratioP2;P2;SDS_P1;SDS_P2;PMS_P1;PMS_P2;Temp;Humidity;BMP_temperature;BMP_pressure;BME280_temperature;BME280_humidity;BME280_pressure;Samples;Min_cycle;Max_cycle;Signal;HPM_P1;HPM_P2
2021/08/14 00:02:19;;;;;;;;;;;;;;;;;;5009205;28;19930;-82
2021/08/14 00:04:47;;;;;;;;;;;;;;;;;;4987135;28;19940;-84
2021/08/14 00:07:17;;;;;;;;;;;;;;;;;;4991726;28;20303;-83
2021/08/14 00:09:46;;;;;;;;;;;;;;;;;;4989287;28;20391;-83
2021/08/14 00:12:14;;;;;;;;;;;;;;;;;;4984601;28;19933;-82
2021/08/14 00:14:43;;;;;;;;;;;;;;;;;;4986614;28;20277;-80
2021/08/14 00:17:11;;;;;;;;;;;;;;;;;;4984978;28;19932;-82
2021/08/14 00:19:40;;;;;;;;;;;;;;;;;;5004841;28;19930;-83
2021/08/14 00:22:08;;;;;;;;;;;;;;;;;;5002317;28;20316;-82
2021/08/14 00:24:38;;;;;;;;;;;;;;;;;;5003549;28;19933;-83
2021/08/14 00:27:07;;;;;;;;;;;;;;;;;;4970970;28;19926;-81
2021/08/14 00:29:36;;;;;;;;;;;;;;;;;;4992524;28;20392;-81
2021/08/14 00:32:05;;;;;;;;;;;;;;;;;;5000234;28;19926;-82
2021/08/14 00:34:33;;;;;;;;;;;;;;;;;;4986592;28;19926;-81
2021/08/14 00:37:02;;;;;;;;;;;;;;;;;;4967900;28;19926;-81
2021/08/14 00:39:30;;;;;;;;;;;;;;;;;;4986143;28;19944;-84
2021/08/14 00:42:00;;;;;;;;;;;;;;;;;;4985144;28;19933;-82
2021/08/14 00:44:28;;;;;;;;;;;;;;;;;;4988283;28;19926;-82
2021/08/14 00:46:57;;;;;;;;;;;;;;;;;;4970658;28;19933;-81
2021/08/14 00:49:25;;;;;;;;;;;;;;;;;;5002137;28;19926;-79
2021/08/14 00:51:54;;;;;;;;;;;;;;;;;;4982992;28;19934;-80
2021/08/14 00:54:22;;;;;;;;;;;;;;;;;;4986081;28;19926;-83
2021/08/14 00:56:51;;;;;;;;;;;;;;;;;;4987812;28;20403;-82
2021/08/14 00:59:20;;;;;;;;;;;;;;;;;;4987369;28;19937;-83
2021/08/14 01:01:49;;;;;;;;;;;;;;;;;;4977459;28;19933;-82
2021/08/14 01:04:18;;;;;;;;;;;;;;;;;;4978581;28;19926;-83
2021/08/14 01:06:46;;;;;;;;;;;;;;;;;;4981444;28;19926;-82
2021/08/14 01:09:15;;;;;;;;;;;;;;;;;;4984721;28;19926;-82
2021/08/14 01:11:43;;;;;;;;;;;;;;;;;;4983851;28;19930;-82
2021/08/14 01:14:13;;;;;;;;;;;;;;;;;;4977276;28;19926;-80
2021/08/14 01:16:44;;;;;;;;;;;;;;;;;;4984516;28;19926;-81
2021/08/14 01:19:12;;;;;;;;;;;;;;;;;;4984465;28;19926;-82
2021/08/14 01:21:46;;;;;;;;;;;;;;;;;;4998284;28;19930;-81
2021/08/14 01:24:15;;;;;;;;;;;;;;;;;;4983669;28;19941;-83
2021/08/14 01:26:45;;;;;;;;;;;;;;;;;;4965624;28;19926;-82
2021/08/14 01:29:13;;;;;;;;;;;;;;;;;;4999836;28;19925;-81
2021/08/14 01:31:42;;;;;;;;;;;;;;;;;;4973759;28;19932;-81
2021/08/14 01:34:11;;;;;;;;;;;;;;;;;;5000218;28;19930;-83
2021/08/14 01:36:39;;;;;;;;;;;;;;;;;;4983520;28;19933;-81
2021/08/14 01:39:08;;;;;;;;;;;;;;;;;;4985273;28;19926;-83
2021/08/14 01:41:36;;;;;;;;;;;;;;;;;;4999146;28;19926;-82
2021/08/14 01:44:06;;;;;;;;;;;;;;;;;;4985327;28;19925;-84
2021/08/14 01:46:37;;;;;;;;;;;;;;;;;;4980833;28;19933;-83
2021/08/14 01:49:05;;;;;;;;;;;;;;;;;;4974725;28;20335;-83
2021/08/14 01:51:35;;;;;;;;;;;;;;;;;;4991697;28;20041;-84
2021/08/14 01:54:04;;;;;;;;;;;;;;;;;;5002477;28;19926;-82
2021/08/14 01:56:33;;;;;;;;;;;;;;;;;;4992352;28;19929;-83
2021/08/14 01:59:02;;;;;;;;;;;;;;;;;;4989285;28;19933;-82
2021/08/14 02:01:32;;;;;;;;;;;;;;;;;;4985205;28;19925;-83
2021/08/14 02:04:01;;;;;;;;;;;;;;;;;;4986139;28;20085;-82
2021/08/14 02:06:29;;;;;;;;;;;;;;;;;;4983804;28;19932;-83
2021/08/14 02:08:58;;;;;;;;;;;;;;;;;;4989207;28;19926;-83
2021/08/14 02:11:27;;;;;;;;;;;;;;;;;;4991056;28;19932;-82
2021/08/14 02:13:56;;;;;;;;;;;;;;;;;;5004696;28;19925;-80
2021/08/14 02:16:25;;;;;;;;;;;;;;;;;;5001752;28;20414;-80
2021/08/14 02:18:55;;;;;;;;;;;;;;;;;;4980034;28;19933;-80
2021/08/14 02:21:24;;;;;;;;;;;;;;;;;;5003650;28;19926;-81
2021/08/14 02:23:52;;;;;;;;;;;;;;;;;;5000749;28;19925;-83
2021/08/14 02:26:21;;;;;;;;;;;;;;;;;;4971574;28;19926;-79
2021/08/14 02:28:49;;;;;;;;;;;;;;;;;;4992649;28;19929;-81
2021/08/14 02:31:18;;;;;;;;;;;;;;;;;;4990921;28;19926;-83
2021/08/14 02:33:46;;;;;;;;;;;;;;;;;;5003952;28;19934;-82
2021/08/14 02:36:17;;;;;;;;;;;;;;;;;;4982943;28;19932;-80
2021/08/14 02:38:45;;;;;;;;;;;;;;;;;;4983183;28;19930;-83
2021/08/14 02:41:14;;;;;;;;;;;;;;;;;;4983720;28;20445;-82
2021/08/14 02:43:43;;;;;;;;;;;;;;;;;;4973319;28;19929;-82
2021/08/14 02:46:11;;;;;;;;;;;;;;;;;;4980243;28;19930;-82
2021/08/14 02:48:39;;;;;;;;;;;;;;;;;;4959962;28;19933;-83
2021/08/14 02:51:08;;;;;;;;;;;;;;;;;;4966395;28;19926;-81
2021/08/14 02:53:37;;;;;;;;;;;;;;;;;;4964091;28;19948;-81
2021/08/14 02:56:06;;;;;;;;;;;;;;;;;;4992094;28;19925;-82
2021/08/14 02:58:34;;;;;;;;;;;;;;;;;;4967777;28;19925;-81
2021/08/14 03:01:02;;;;;;;;;;;;;;;;;;4983653;28;19934;-81
2021/08/14 03:03:31;;;;;;;;;;;;;;;;;;4993001;28;19926;-83
2021/08/14 03:05:59;;;;;;;;;;;;;;;;;;4996729;28;19941;-81
2021/08/14 03:08:28;;;;;;;;;;;;;;;;;;4981597;28;20291;-82
2021/08/14 03:10:58;;;;;;;;;;;;;;;;;;4990118;28;19926;-82
2021/08/14 03:13:26;;;;;;;;;;;;;;;;;;4997632;28;20308;-81
2021/08/14 03:15:55;;;;;;;;;;;;;;;;;;4984379;28;20411;-80
2021/08/14 03:18:23;;;;;;;;;;;;;;;;;;4969452;28;19926;-82
2021/08/14 03:20:52;;;;;;;;;;;;;;;;;;4982168;28;19925;-82
2021/08/14 03:23:20;;;;;;;;;;;;;;;;;;4986152;28;19925;-83
2021/08/14 03:25:49;;;;;;;;;;;;;;;;;;5002113;28;20416;-82
2021/08/14 03:28:19;;;;;;;;;;;;;;;;;;5000996;28;19941;-81
2021/08/14 03:30:47;;;;;;;;;;;;;;;;;;4983458;28;20336;-81
2021/08/14 03:33:15;;;;;;;;;;;;;;;;;;4985547;28;19926;-86
2021/08/14 03:35:44;;;;;;;;;;;;;;;;;;5002924;28;19933;-83
2021/08/14 03:38:12;;;;;;;;;;;;;;;;;;4999752;28;19925;-82
2021/08/14 03:40:41;;;;;;;;;;;;;;;;;;4984688;28;19930;-83
2021/08/14 03:43:09;;;;;;;;;;;;;;;;;;4989559;28;19933;-83
2021/08/14 03:45:39;;;;;;;;;;;;;;;;;;4991346;28;20392;-81
2021/08/14 03:48:08;;;;;;;;;;;;;;;;;;4993658;28;19925;-82
2021/08/14 03:50:37;;;;;;;;;;;;;;;;;;4985573;28;19941;-79
2021/08/14 03:53:05;;;;;;;;;;;;;;;;;;4999660;28;19925;-81
2021/08/14 03:55:34;;;;;;;;;;;;;;;;;;4985034;28;20311;-81
2021/08/14 03:58:02;;;;;;;;;;;;;;;;;;4991725;28;20697;-82
2021/08/14 04:00:31;;;;;;;;;;;;;;;;;;4986753;28;19941;-81
2021/08/14 04:03:01;;;;;;;;;;;;;;;;;;4992468;28;19925;-81
2021/08/14 04:05:29;;;;;;;;;;;;;;;;;;4989281;28;19926;-84
2021/08/14 04:07:58;;;;;;;;;;;;;;;;;;4985795;28;19925;-81
2021/08/14 04:10:26;;;;;;;;;;;;;;;;;;4989773;28;19949;-81
2021/08/14 04:12:55;;;;;;;;;;;;;;;;;;4988986;28;19929;-82
2021/08/14 04:15:23;;;;;;;;;;;;;;;;;;4979829;28;19929;-82
2021/08/14 04:17:52;;;;;;;;;;;;;;;;;;4987819;28;19934;-84
2021/08/14 04:20:22;;;;;;;;;;;;;;;;;;4981026;28;19926;-82
2021/08/14 04:22:50;;;;;;;;;;;;;;;;;;4994230;28;19933;-81
2021/08/14 04:25:19;;;;;;;;;;;;;;;;;;4994300;28;19936;-83
2021/08/14 04:27:47;;;;;;;;;;;;;;;;;;4998183;28;19930;-85
2021/08/14 04:30:16;;;;;;;;;;;;;;;;;;4991499;28;19936;-84
2021/08/14 04:32:44;;;;;;;;;;;;;;;;;;4984553;28;19934;-82
2021/08/14 04:35:13;;;;;;;;;;;;;;;;;;5003944;28;19926;-84
2021/08/14 04:37:43;;;;;;;;;;;;;;;;;;4996560;28;20343;-84
2021/08/14 04:40:13;;;;;;;;;;;;;;;;;;4993523;28;20326;-85
2021/08/14 04:42:42;;;;;;;;;;;;;;;;;;4997639;28;20445;-82
2021/08/14 04:45:11;;;;;;;;;;;;;;;;;;4990748;28;19926;-86
2021/08/14 04:47:39;;;;;;;;;;;;;;;;;;5017140;28;19940;-87
2021/08/14 04:50:08;;;;;;;;;;;;;;;;;;4994649;28;19932;-86
2021/08/14 04:52:37;;;;;;;;;;;;;;;;;;4995786;28;19926;-85
2021/08/14 04:55:07;;;;;;;;;;;;;;;;;;5015281;28;19933;-83
2021/08/14 04:57:36;;;;;;;;;;;;;;;;;;4985588;28;19926;-84
2021/08/14 05:00:05;;;;;;;;;;;;;;;;;;5005528;28;19937;-82
2021/08/14 05:02:33;;;;;;;;;;;;;;;;;;4989517;28;20094;-84
2021/08/14 05:05:02;;;;;;;;;;;;;;;;;;4974200;28;19926;-83
2021/08/14 05:07:30;;;;;;;;;;;;;;;;;;4989439;28;19926;-81
2021/08/14 05:09:59;;;;;;;;;;;;;;;;;;4991110;28;20402;-85
2021/08/14 05:12:29;;;;;;;;;;;;;;;;;;4981487;28;19933;-86
2021/08/14 05:14:58;;;;;;;;;;;;;;;;;;4982370;28;20273;-84
2021/08/14 05:17:26;;;;;;;;;;;;;;;;;;4977577;28;19937;-82
2021/08/14 05:19:55;;;;;;;;;;;;;;;;;;4978337;28;19926;-81
2021/08/14 05:22:23;;;;;;;;;;;;;;;;;;4982948;28;19927;-85
2021/08/14 05:24:52;;;;;;;;;;;;;;;;;;4970156;28;20338;-84
2021/08/14 05:27:20;;;;;;;;;;;;;;;;;;4980938;28;19926;-82
2021/08/14 05:29:50;;;;;;;;;;;;;;;;;;4961344;28;19933;-81
2021/08/14 05:32:18;;;;;;;;;;;;;;;;;;4974395;28;19933;-80
2021/08/14 05:34:46;;;;;;;;;;;;;;;;;;4962324;28;19936;-81
2021/08/14 05:37:15;;;;;;;;;;;;;;;;;;4975695;28;19937;-81
2021/08/14 05:39:43;;;;;;;;;;;;;;;;;;4975627;28;19926;-80
2021/08/14 05:42:11;;;;;;;;;;;;;;;;;;4977954;28;19926;-81
2021/08/14 05:44:39;;;;;;;;;;;;;;;;;;4987983;28;19925;-81
2021/08/14 05:47:09;;;;;;;;;;;;;;;;;;4971694;28;19926;-81
2021/08/14 05:49:37;;;;;;;;;;;;;;;;;;4976051;28;19925;-83
2021/08/14 05:52:06;;;;;;;;;;;;;;;;;;4972490;28;19926;-82
2021/08/14 05:54:34;;;;;;;;;;;;;;;;;;4997450;28;19927;-81
2021/08/14 05:57:03;;;;;;;;;;;;;;;;;;4956296;28;19930;-81
2021/08/14 05:59:31;;;;;;;;;;;;;;;;;;4980633;28;19932;-81
2021/08/14 06:01:59;;;;;;;;;;;;;;;;;;4955005;28;20294;-82
2021/08/14 06:04:29;;;;;;;;;;;;;;;;;;4962626;28;20321;-82
2021/08/14 06:06:57;;;;;;;;;;;;;;;;;;4968707;28;20411;-82
2021/08/14 06:09:25;;;;;;;;;;;;;;;;;;4973147;28;19929;-83
2021/08/14 06:11:54;;;;;;;;;;;;;;;;;;4981438;28;20388;-82
2021/08/14 06:14:22;;;;;;;;;;;;;;;;;;4972574;28;19926;-82
2021/08/14 06:16:50;;;;;;;;;;;;;;;;;;4958698;28;21501;-83
2021/08/14 06:19:18;;;;;;;;;;;;;;;;;;4982496;28;20399;-81
2021/08/14 06:21:48;;;;;;;;;;;;;;;;;;4973517;28;20418;-82
2021/08/14 06:24:16;;;;;;;;;;;;;;;;;;4978251;28;19939;-82
2021/08/14 06:26:45;;;;;;;;;;;;;;;;;;4971014;28;20005;-82
2021/08/14 06:29:13;;;;;;;;;;;;;;;;;;4983189;28;19930;-82
2021/08/14 06:31:41;;;;;;;;;;;;;;;;;;4968789;28;20426;-83
2021/08/14 06:34:09;;;;;;;;;;;;;;;;;;4976726;28;19926;-83
2021/08/14 06:36:38;;;;;;;;;;;;;;;;;;4974776;28;19948;-84
2021/08/14 06:39:07;;;;;;;;;;;;;;;;;;4992598;28;19937;-82
2021/08/14 06:41:35;;;;;;;;;;;;;;;;;;4982218;28;19933;-84
2021/08/14 06:44:04;;;;;;;;;;;;;;;;;;4984806;28;19926;-84
2021/08/14 06:46:32;;;;;;;;;;;;;;;;;;4978523;28;19933;-82
2021/08/14 06:49:02;;;;;;;;;;;;;;;;;;4983305;28;19930;-83
2021/08/14 06:51:31;;;;;;;;;;;;;;;;;;4977954;28;19941;-82
2021/08/14 06:53:59;;;;;;;;;;;;;;;;;;4991448;28;19926;-82
2021/08/14 06:56:29;;;;;;;;;;;;;;;;;;4967757;28;20427;-82
2021/08/14 06:58:57;;;;;;;;;;;;;;;;;;4978791;28;19926;-82
2021/08/14 07:01:25;;;;;;;;;;;;;;;;;;4973775;28;19926;-83
2021/08/14 07:03:53;;;;;;;;;;;;;;;;;;4972682;28;19925;-83
2021/08/14 07:06:22;;;;;;;;;;;;;;;;;;4976646;28;19926;-82
2021/08/14 07:08:50;;;;;;;;;;;;;;;;;;4978809;28;19933;-81
2021/08/14 07:11:20;;;;;;;;;;;;;;;;;;4978950;28;19933;-82
2021/08/14 07:13:50;;;;;;;;;;;;;;;;;;4968356;28;19926;-82
2021/08/14 07:16:19;;;;;;;;;;;;;;;;;;4969907;28;20308;-82
2021/08/14 07:18:47;;;;;;;;;;;;;;;;;;4994343;28;19925;-82
2021/08/14 07:21:16;;;;;;;;;;;;;;;;;;4969161;28;19933;-82
2021/08/14 07:23:44;;;;;;;;;;;;;;;;;;4975987;28;19933;-82
2021/08/14 07:26:12;;;;;;;;;;;;;;;;;;4978325;28;20392;-82
2021/08/14 07:28:41;;;;;;;;;;;;;;;;;;4969974;28;19925;-82
2021/08/14 07:31:11;;;;;;;;;;;;;;;;;;4972011;28;19933;-82
2021/08/14 07:33:40;;;;;;;;;;;;;;;;;;4993989;28;19926;-82
2021/08/14 07:36:08;;;;;;;;;;;;;;;;;;4977892;28;19937;-84
2021/08/14 07:38:36;;;;;;;;;;;;;;;;;;4970219;28;19933;-82
2021/08/14 07:41:05;;;;;;;;;;;;;;;;;;4978922;28;19933;-83
2021/08/14 07:43:33;;;;;;;;;;;;;;;;;;4980163;28;20380;-83
2021/08/14 07:46:01;;;;;;;;;;;;;;;;;;4978937;28;19937;-83
2021/08/14 07:48:31;;;;;;;;;;;;;;;;;;4972389;28;19926;-82
2021/08/14 07:50:59;;;;;;;;;;;;;;;;;;4966861;28;19949;-82
2021/08/14 07:53:27;;;;;;;;;;;;;;;;;;4975410;28;19925;-82
2021/08/14 07:55:55;;;;;;;;;;;;;;;;;;4991943;28;19925;-81
2021/08/14 07:58:23;;;;;;;;;;;;;;;;;;4978318;28;19949;-82
2021/08/14 08:00:51;;;;;;;;;;;;;;;;;;4975954;28;19941;-82
2021/08/14 08:03:20;;;;;;;;;;;;;;;;;;4973844;28;19936;-82
2021/08/14 08:05:50;;;;;;;;;;;;;;;;;;4977201;28;19929;-83
2021/08/14 08:08:18;;;;;;;;;;;;;;;;;;4977226;28;19941;-83
2021/08/14 08:10:46;;;;;;;;;;;;;;;;;;4974978;28;19926;-83
2021/08/14 08:13:14;;;;;;;;;;;;;;;;;;4975468;28;20331;-82
2021/08/14 08:15:43;;;;;;;;;;;;;;;;;;4990287;28;19938;-82
2021/08/14 08:18:12;;;;;;;;;;;;;;;;;;4976354;28;19933;-82
2021/08/14 08:20:40;;;;;;;;;;;;;;;;;;4975379;28;20402;-82
2021/08/14 08:23:10;;;;;;;;;;;;;;;;;;4960659;28;19926;-82
2021/08/14 08:25:38;;;;;;;;;;;;;;;;;;4980416;28;19926;-83
2021/08/14 08:28:06;;;;;;;;;;;;;;;;;;4969968;28;19937;-83
2021/08/14 08:30:34;;;;;;;;;;;;;;;;;;4980858;28;19934;-83
2021/08/14 08:33:03;;;;;;;;;;;;;;;;;;4970357;28;19932;-84
2021/08/14 08:35:31;;;;;;;;;;;;;;;;;;4985379;28;20198;-82
2021/08/14 08:37:59;;;;;;;;;;;;;;;;;;5001885;28;20438;-83
2021/08/14 08:40:29;;;;;;;;;;;;;;;;;;4974814;28;20423;-83
2021/08/14 08:42:57;;;;;;;;;;;;;;;;;;4976952;28;20319;-83
2021/08/14 08:45:25;;;;;;;;;;;;;;;;;;4973868;28;19926;-83
2021/08/14 08:47:53;;;;;;;;;;;;;;;;;;4972831;28;20597;-82
2021/08/14 08:50:21;;;;;;;;;;;;;;;;;;4956817;28;19925;-82
2021/08/14 08:52:49;;;;;;;;;;;;;;;;;;4974059;28;19925;-82
2021/08/14 08:55:18;;;;;;;;;;;;;;;;;;4975331;28;19930;-83
2021/08/14 08:57:48;;;;;;;;;;;;;;;;;;4981266;28;19925;-85
2021/08/14 09:00:17;;;;;;;;;;;;;;;;;;4994566;28;20285;-83
2021/08/14 09:02:46;;;;;;;;;;;;;;;;;;4976288;28;19932;-83
2021/08/14 09:05:15;;;;;;;;;;;;;;;;;;4982751;28;19933;-84
2021/08/14 09:07:44;;;;;;;;;;;;;;;;;;5000990;28;19930;-82
2021/08/14 09:10:14;;;;;;;;;;;;;;;;;;4989362;28;19926;-83
2021/08/14 09:12:43;;;;;;;;;;;;;;;;;;4977162;28;19933;-83
2021/08/14 09:15:16;;;;;;;;;;;;;;;;;;4977279;28;20311;-83
2021/08/14 09:17:45;;;;;;;;;;;;;;;;;;4976588;28;19927;-83
2021/08/14 09:20:14;;;;;;;;;;;;;;;;;;4972686;28;19930;-83
2021/08/14 09:22:45;;;;;;;;;;;;;;;;;;4974623;28;23199;-82
2021/08/14 09:25:14;;;;;;;;;;;;;;;;;;4961607;28;19933;-83
2021/08/14 09:27:52;;;;;;;;;;;;;;;;;;4959679;28;20295;-84
2021/08/14 09:30:22;;;;;;;;;;;;;;;;;;4977034;28;19948;-83
2021/08/14 09:33:05;;;;;;;;;;;;;;;;;;4973008;28;19930;-83
2021/08/14 09:35:34;;;;;;;;;;;;;;;;;;4977215;28;19929;-83
2021/08/14 09:38:03;;;;;;;;;;;;;;;;;;4982676;28;19933;-84
2021/08/14 09:40:35;;;;;;;;;;;;;;;;;;4984390;28;19930;-84
2021/08/14 09:43:04;;;;;;;;;;;;;;;;;;4995292;28;20296;-85
2021/08/14 09:45:35;;;;;;;;;;;;;;;;;;4980100;28;19926;-86
2021/08/14 09:48:17;;;;;;;;;;;;;;;;;;4979524;28;19933;-85
2021/08/14 09:50:46;;;;;;;;;;;;;;;;;;4981344;28;19933;-84
2021/08/14 09:53:15;;;;;;;;;;;;;;;;;;4979496;28;19929;-85
2021/08/14 09:55:45;;;;;;;;;;;;;;;;;;4974433;28;19941;-86
2021/08/14 09:58:18;;;;;;;;;;;;;;;;;;5001671;28;19934;-86
2021/08/14 10:00:48;;;;;;;;;;;;;;;;;;4998165;28;19926;-85
2021/08/14 10:03:17;;;;;;;;;;;;;;;;;;5001900;28;19926;-85
2021/08/14 10:05:46;;;;;;;;;;;;;;;;;;4998792;28;20387;-85
2021/08/14 10:08:15;;;;;;;;;;;;;;;;;;5003405;28;19930;-86
2021/08/14 10:10:43;;;;;;;;;;;;;;;;;;4971204;28;19926;-84
2021/08/14 10:13:16;;;;;;;;;;;;;;;;;;4989126;28;19926;-86
2021/08/14 10:15:45;;;;;;;;;;;;;;;;;;4972035;28;19926;-84
2021/08/14 10:18:17;;;;;;;;;;;;;;;;;;4991469;28;19933;-84
2021/08/14 10:20:49;;;;;;;;;;;;;;;;;;4984660;28;19930;-86
2021/08/14 10:23:20;;;;;;;;;;;;;;;;;;4990447;28;19926;-86
2021/08/14 10:25:49;;;;;;;;;;;;;;;;;;4971193;28;19933;-86
2021/08/14 10:28:19;;;;;;;;;;;;;;;;;;4983964;28;19926;-87
2021/08/14 10:30:53;;;;;;;;;;;;;;;;;;4987269;28;19937;-87
2021/08/14 10:33:38;;;;;;;;;;;;;;;;;;5002078;28;19926;-87
2021/08/14 10:36:40;;;;;;;;;;;;;;;;;;4981765;28;19934;-85
2021/08/14 10:39:30;;;;;;;;;;;;;;;;;;4923723;29;19927;-88
2021/08/14 10:42:14;;;;;;;;;;;;;;;;;;4973926;28;19926;-88
2021/08/14 10:51:02;;;;;;;;;;;;;;;;;;4915608;29;19938;-88
2021/08/14 11:29:16;;;;;;;;;;;;;;;;;;4849844;29;19928;-88
2021/08/14 12:02:11;;;;;;;;;;;;;;;;;;5042098;28;19925;-90
2021/08/14 12:04:40;;;;;;;;;;;;;;;;;;5019434;28;19932;-90
2021/08/14 12:07:08;;;;;;;;;;;;;;;;;;5019616;28;19933;-90
2021/08/14 12:09:36;;;;;;;;;;;;;;;;;;5002753;28;19937;-89
2021/08/14 12:12:05;;;;;;;;;;;;;;;;;;5015853;28;19925;-89
2021/08/14 12:14:36;;;;;;;;;;;;;;;;;;5002754;28;19932;-89
2021/08/14 12:17:05;;;;;;;;;;;;;;;;;;5004238;28;19930;-89
2021/08/14 12:19:46;;;;;;;;;;;;;;;;;;5020418;28;20408;-90
2021/08/14 12:22:16;;;;;;;;;;;;;;;;;;5017284;28;19926;-90
2021/08/14 12:24:44;;;;;;;;;;;;;;;;;;5011851;28;19925;-90
2021/08/14 12:27:29;;;;;;;;;;;;;;;;;;4999218;28;19933;-90
2021/08/14 12:30:12;;;;;;;;;;;;;;;;;;5027684;28;19925;-90
2021/08/14 12:32:40;;;;;;;;;;;;;;;;;;5011287;28;19926;-90
2021/08/14 12:35:20;;;;;;;;;;;;;;;;;;5010919;28;19926;-90
2021/08/14 12:37:50;;;;;;;;;;;;;;;;;;4995134;28;19925;-88
2021/08/14 12:40:18;;;;;;;;;;;;;;;;;;5027772;28;19925;-90
2021/08/14 12:42:46;;;;;;;;;;;;;;;;;;5023478;28;19929;-90
2021/08/14 12:45:16;;;;;;;;;;;;;;;;;;5025513;28;20332;-90
2021/08/14 12:47:44;;;;;;;;;;;;;;;;;;5024173;28;19925;-90
2021/08/14 12:50:14;;;;;;;;;;;;;;;;;;5011109;28;19932;-90
2021/08/14 12:52:54;;;;;;;;;;;;;;;;;;4990754;28;20283;-91
2021/08/14 12:55:25;;;;;;;;;;;;;;;;;;5022212;28;19926;-90
2021/08/14 12:57:53;;;;;;;;;;;;;;;;;;5011558;28;19948;-91
2021/08/14 13:00:22;;;;;;;;;;;;;;;;;;5011098;28;19926;-90
2021/08/14 13:02:50;;;;;;;;;;;;;;;;;;5018160;28;19926;-88
2021/08/14 13:05:19;;;;;;;;;;;;;;;;;;5011323;28;19954;-88
2021/08/14 13:07:50;;;;;;;;;;;;;;;;;;5012071;28;19926;-87
2021/08/14 13:10:18;;;;;;;;;;;;;;;;;;4989261;28;19925;-89
2021/08/14 13:12:50;;;;;;;;;;;;;;;;;;5007590;28;19925;-92
2021/08/14 13:15:19;;;;;;;;;;;;;;;;;;4994391;28;19926;-90
2021/08/14 13:17:47;;;;;;;;;;;;;;;;;;4995916;28;19948;-92
2021/08/14 13:20:16;;;;;;;;;;;;;;;;;;4994224;28;19937;-91
2021/08/14 13:22:59;;;;;;;;;;;;;;;;;;4996522;28;19930;-92
2021/08/14 13:29:10;;;;;;;;;;;;;;;;;;5021644;28;19925;-91
2021/08/14 13:31:40;;;;;;;;;;;;;;;;;;4988777;28;19925;-89
2021/08/14 13:34:13;;;;;;;;;;;;;;;;;;4993084;28;20305;-91
2021/08/14 13:36:41;;;;;;;;;;;;;;;;;;5011765;28;19926;-91
2021/08/14 13:39:10;;;;;;;;;;;;;;;;;;5009847;28;19925;-93
2021/08/14 13:41:52;;;;;;;;;;;;;;;;;;5023101;28;19925;-90
2021/08/14 13:45:11;;;;;;;;;;;;;;;;;;5022803;28;19930;-89
2021/08/14 13:51:58;;;;;;;;;;;;;;;;;;5011266;28;20399;-89
2021/08/14 14:02:35;;;;;;;;;;;;;;;;;;5012342;28;19929;-89
2021/08/14 14:05:03;;;;;;;;;;;;;;;;;;5022307;28;20425;-90
2021/08/14 14:19:38;;;;;;;;;;;;;;;;;;5016289;28;19928;-89
2021/08/14 14:34:30;;;;;;;;;;;;;;;;;;5014463;28;20392;-90
2021/08/14 14:37:01;;;;;;;;;;;;;;;;;;5030096;28;19926;-90
2021/08/14 14:39:29;;;;;;;;;;;;;;;;;;4996654;28;19926;-89
2021/08/14 14:41:58;;;;;;;;;;;;;;;;;;5011076;28;19933;-89
2021/08/14 14:44:26;;;;;;;;;;;;;;;;;;4994452;28;20017;-89
2021/08/14 14:46:54;;;;;;;;;;;;;;;;;;5015102;28;19933;-88
2021/08/14 14:49:23;;;;;;;;;;;;;;;;;;5012939;28;19941;-88
2021/08/14 14:51:51;;;;;;;;;;;;;;;;;;5010994;28;20412;-88
2021/08/14 14:54:20;;;;;;;;;;;;;;;;;;5010576;28;20321;-88
2021/08/14 15:03:18;;;;;;;;;;;;;;;;;;5005715;28;19926;-88
2021/08/14 15:05:46;;;;;;;;;;;;;;;;;;4994697;28;19930;-88
2021/08/14 15:08:15;;;;;;;;;;;;;;;;;;5010246;28;19935;-88
2021/08/14 15:10:44;;;;;;;;;;;;;;;;;;5008691;28;20251;-89
2021/08/14 15:13:12;;;;;;;;;;;;;;;;;;4995576;28;19925;-89
2021/08/14 15:15:41;;;;;;;;;;;;;;;;;;4994045;28;19936;-89
2021/08/14 15:18:09;;;;;;;;;;;;;;;;;;4992710;28;20007;-88
2021/08/14 15:20:38;;;;;;;;;;;;;;;;;;5010841;28;20329;-88
2021/08/14 15:23:18;;;;;;;;;;;;;;;;;;5009236;28;20333;-89
2021/08/14 15:32:28;;;;;;;;;;;;;;;;;;4988783;28;19960;-89
2021/08/14 15:48:13;;;;;;;;;;;;;;;;;;4912888;29;19934;-90
2021/08/14 15:51:54;;;;;;;;;;;;;;;;;;4940107;28;19933;-88
2021/08/14 15:54:22;;;;;;;;;;;;;;;;;;4988759;28;19926;-90
2021/08/14 16:01:18;;;;;;;;;;;;;;;;;;5011444;28;19936;-91
2021/08/14 16:08:06;;;;;;;;;;;;;;;;;;4974184;28;19932;-90
2021/08/14 16:10:42;;;;;;;;;;;;;;;;;;4989842;28;19934;-90
2021/08/14 16:13:10;;;;;;;;;;;;;;;;;;4992079;28;19933;-89
2021/08/14 16:19:47;;;;;;;;;;;;;;;;;;5009029;28;23186;-89
2021/08/14 16:22:21;;;;;;;;;;;;;;;;;;5008539;28;19933;-93
2021/08/14 16:27:47;;;;;;;;;;;;;;;;;;5002460;28;19926;-90
2021/08/14 16:35:44;;;;;;;;;;;;;;;;;;4982403;28;19948;-89
2021/08/14 16:38:13;;;;;;;;;;;;;;;;;;4945794;28;19942;-89
2021/08/14 16:40:53;;;;;;;;;;;;;;;;;;4953334;28;20329;-89
2021/08/14 16:43:33;;;;;;;;;;;;;;;;;;4955683;28;19933;-89
2021/08/14 16:46:15;;;;;;;;;;;;;;;;;;4955551;28;19936;-90
2021/08/14 16:48:57;;;;;;;;;;;;;;;;;;4966635;28;19937;-90
2021/08/14 16:51:28;;;;;;;;;;;;;;;;;;4967546;28;19926;-89
2021/08/14 16:54:07;;;;;;;;;;;;;;;;;;4964283;28;20314;-90
2021/08/14 16:56:37;;;;;;;;;;;;;;;;;;4966343;28;19946;-91
2021/08/14 16:59:05;;;;;;;;;;;;;;;;;;4967972;28;19934;-89
2021/08/14 17:01:33;;;;;;;;;;;;;;;;;;4967946;28;19932;-90
2021/08/14 17:04:03;;;;;;;;;;;;;;;;;;4990210;28;20421;-90
2021/08/14 17:06:31;;;;;;;;;;;;;;;;;;5003583;28;19932;-91
2021/08/14 17:08:59;;;;;;;;;;;;;;;;;;4983479;28;19948;-90
2021/08/14 17:11:27;;;;;;;;;;;;;;;;;;5003560;28;19940;-91
2021/08/14 17:13:57;;;;;;;;;;;;;;;;;;5004863;28;20235;-91
2021/08/14 17:16:25;;;;;;;;;;;;;;;;;;5018401;28;19992;-91
2021/08/14 17:18:54;;;;;;;;;;;;;;;;;;5016416;28;19958;-92
2021/08/14 17:21:22;;;;;;;;;;;;;;;;;;5005450;28;19933;-91
2021/08/14 17:23:51;;;;;;;;;;;;;;;;;;4989236;28;19932;-92
2021/08/14 17:26:19;;;;;;;;;;;;;;;;;;4987592;28;19940;-90
2021/08/14 17:28:47;;;;;;;;;;;;;;;;;;5004343;28;20389;-89
2021/08/14 17:31:17;;;;;;;;;;;;;;;;;;5013004;28;19909;-88
2021/08/14 17:33:52;;;;;;;;;;;;;;;;;;4990050;28;20006;-91
2021/08/14 17:36:20;;;;;;;;;;;;;;;;;;4994207;28;20317;-92
2021/08/14 17:38:49;;;;;;;;;;;;;;;;;;5002578;28;19930;-91
2021/08/14 17:41:17;;;;;;;;;;;;;;;;;;4989637;28;19929;-92
2021/08/14 17:43:45;;;;;;;;;;;;;;;;;;5017035;28;19925;-92
2021/08/14 17:46:20;;;;;;;;;;;;;;;;;;4987896;28;19933;-90
2021/08/14 17:48:51;;;;;;;;;;;;;;;;;;5001279;28;19930;-92
2021/08/14 17:51:19;;;;;;;;;;;;;;;;;;5006819;28;20529;-92
2021/08/14 17:53:47;;;;;;;;;;;;;;;;;;5019207;28;19929;-91
2021/08/14 17:56:15;;;;;;;;;;;;;;;;;;5004466;28;19932;-90
2021/08/14 17:58:43;;;;;;;;;;;;;;;;;;5023056;28;19925;-90
2021/08/14 18:01:11;;;;;;;;;;;;;;;;;;5008057;28;19925;-91
2021/08/14 18:03:40;;;;;;;;;;;;;;;;;;5010263;28;19945;-90
2021/08/14 18:06:11;;;;;;;;;;;;;;;;;;4989197;28;19930;-87
2021/08/14 18:08:39;;;;;;;;;;;;;;;;;;4982417;28;20025;-87
2021/08/14 18:11:08;;;;;;;;;;;;;;;;;;5020003;28;19933;-89
2021/08/14 18:13:37;;;;;;;;;;;;;;;;;;5008827;28;19936;-90
2021/08/14 18:16:05;;;;;;;;;;;;;;;;;;5009322;28;19932;-90
2021/08/14 18:18:34;;;;;;;;;;;;;;;;;;5025381;28;19933;-90
2021/08/14 18:21:02;;;;;;;;;;;;;;;;;;5008087;28;19933;-89
2021/08/14 18:23:32;;;;;;;;;;;;;;;;;;5019800;28;19932;-89
2021/08/14 18:26:00;;;;;;;;;;;;;;;;;;4992349;28;19932;-89
2021/08/14 18:28:28;;;;;;;;;;;;;;;;;;5008050;28;19932;-89
2021/08/14 18:31:03;;;;;;;;;;;;;;;;;;5005977;28;19926;-90
2021/08/14 18:33:31;;;;;;;;;;;;;;;;;;5024896;28;20308;-92
2021/08/14 18:36:00;;;;;;;;;;;;;;;;;;4992578;28;19936;-91
2021/08/14 18:38:28;;;;;;;;;;;;;;;;;;4994255;28;20416;-92
2021/08/14 18:40:58;;;;;;;;;;;;;;;;;;5017594;28;20405;-92
2021/08/14 18:43:26;;;;;;;;;;;;;;;;;;5020611;28;19936;-92
2021/08/14 18:45:54;;;;;;;;;;;;;;;;;;5016163;28;19925;-91
2021/08/14 18:48:22;;;;;;;;;;;;;;;;;;5018687;28;19933;-92
2021/08/14 18:50:52;;;;;;;;;;;;;;;;;;5029154;28;19936;-92
2021/08/14 18:53:20;;;;;;;;;;;;;;;;;;5030434;28;20173;-93
2021/08/14 18:55:48;;;;;;;;;;;;;;;;;;4998157;28;20317;-92
2021/08/14 18:58:18;;;;;;;;;;;;;;;;;;5006039;28;20128;-92
2021/08/14 19:00:46;;;;;;;;;;;;;;;;;;5033780;28;19934;-89
2021/08/14 19:03:14;;;;;;;;;;;;;;;;;;4995525;28;19925;-90
2021/08/14 19:05:43;;;;;;;;;;;;;;;;;;5014161;28;19933;-91
2021/08/14 19:08:11;;;;;;;;;;;;;;;;;;5017446;28;19948;-89
2021/08/14 19:10:39;;;;;;;;;;;;;;;;;;5018194;28;19940;-89
2021/08/14 19:13:07;;;;;;;;;;;;;;;;;;5020281;28;20228;-90
2021/08/14 19:15:37;;;;;;;;;;;;;;;;;;5035024;28;19940;-90
2021/08/14 19:18:05;;;;;;;;;;;;;;;;;;5000386;28;20313;-89
2021/08/14 19:20:33;;;;;;;;;;;;;;;;;;5034390;28;20073;-90
2021/08/14 19:23:02;;;;;;;;;;;;;;;;;;4998572;28;19930;-90
2021/08/14 19:25:30;;;;;;;;;;;;;;;;;;5014563;28;19925;-89
2021/08/14 19:27:58;;;;;;;;;;;;;;;;;;5016772;28;20317;-90
2021/08/14 19:30:27;;;;;;;;;;;;;;;;;;4999724;28;19934;-90
2021/08/14 19:33:00;;;;;;;;;;;;;;;;;;5014554;28;20308;-90
2021/08/14 19:35:39;;;;;;;;;;;;;;;;;;5023516;28;19925;-90
2021/08/14 19:38:08;;;;;;;;;;;;;;;;;;5032310;28;20265;-89
2021/08/14 19:40:37;;;;;;;;;;;;;;;;;;5034156;28;19933;-91
2021/08/14 19:43:08;;;;;;;;;;;;;;;;;;5001856;28;19929;-92
2021/08/14 19:45:36;;;;;;;;;;;;;;;;;;5013811;28;19941;-90